Time;durP1;ratioP1;P1;durP2;ratioP2;P2;SDS_P1;SDS_P2;PMS_P1;PMS_P2;Temp;Humidity;BMP_temperature;BMP_pressure;BME280_temperature;BME280_humidity;BME280_pressure;Samples;Min_cycle;Max_cycle;Signal;HPM_P1;HPM_P2
2024/03/15 00:00:13;;;;;;;11.70;9.27;;;12.00;99.90;;;;;;7361167;19;20014;-63
2024/03/15 00:02:39;;;;;;;13.38;8.90;;;11.90;99.90;;;;;;7368339;19;20025;-67
2024/03/15 00:05:06;;;;;;;10.55;8.48;;;11.80;99.90;;;;;;7368899;19;20078;-67
2024/03/15 00:07:32;;;;;;;9.63;8.55;;;11.70;99.90;;;;;;7370632;19;20018;-63
2024/03/15 00:09:58;;;;;;;13.43;8.60;;;11.60;99.90;;;;;;7363821;19;20038;-66
2024/03/15 00:12:25;;;;;;;12.57;8.70;;;11.50;99.90;;;;;;7370233;19;20733;-67
2024/03/15 00:14:51;;;;;;;10.00;8.40;;;11.40;99.90;;;;;;7367263;19;21384;-65
2024/03/15 00:17:17;;;;;;;11.13;8.43;;;11.30;99.90;;;;;;7365942;19;20025;-64
2024/03/15 00:19:44;;;;;;;13.38;9.18;;;11.20;99.90;;;;;;7361891;19;20015;-65
2024/03/15 00:22:10;;;;;;;10.77;8.35;;;11.10;99.90;;;;;;7361800;19;20043;-65
2024/03/15 00:24:36;;;;;;;11.45;9.38;;;11.10;99.90;;;;;;7368711;19;20095;-65
2024/03/15 00:27:03;;;;;;;11.75;8.80;;;11.00;99.90;;;;;;7363468;19;20387;-65
2024/03/15 00:29:30;;;;;;;12.55;9.23;;;10.90;99.90;;;;;;7368282;19;20067;-64
2024/03/15 00:31:59;;;;;;;10.40;8.27;;;10.90;99.90;;;;;;7363580;19;20122;-65
2024/03/15 00:34:25;;;;;;;11.23;8.80;;;10.90;99.90;;;;;;7369924;19;20022;-63
2024/03/15 00:36:54;;;;;;;10.80;8.85;;;10.90;99.90;;;;;;7367189;19;20027;-68
2024/03/15 00:39:20;;;;;;;12.13;8.70;;;10.90;99.90;;;;;;7372673;19;20018;-67
2024/03/15 00:41:47;;;;;;;11.60;8.55;;;11.00;99.90;;;;;;7369080;19;20049;-68
2024/03/15 00:44:14;;;;;;;10.15;8.27;;;11.00;99.90;;;;;;7366377;19;20036;-67
2024/03/15 00:46:40;;;;;;;9.57;8.57;;;11.00;99.90;;;;;;7368373;19;20014;-63
2024/03/15 00:49:06;;;;;;;10.10;8.60;;;11.00;99.90;;;;;;7365967;19;20019;-64
2024/03/15 00:51:35;;;;;;;11.50;8.30;;;11.10;99.90;;;;;;7367780;19;20015;-64
2024/03/15 00:54:01;;;;;;;11.35;8.07;;;11.00;99.90;;;;;;7367893;19;20078;-67
2024/03/15 00:56:28;;;;;;;13.30;8.65;;;11.10;99.90;;;;;;7366987;19;20739;-67
2024/03/15 00:58:57;;;;;;;11.27;7.50;;;11.10;99.90;;;;;;7367695;19;20124;-67
2024/03/15 01:01:23;;;;;;;9.43;8.27;;;11.10;99.90;;;;;;7365237;19;20208;-63
2024/03/15 01:03:49;;;;;;;10.95;7.97;;;11.10;99.90;;;;;;7365604;19;20026;-64
2024/03/15 01:06:16;;;;;;;11.32;8.13;;;11.10;99.90;;;;;;7366925;19;20022;-63
2024/03/15 01:08:42;;;;;;;9.35;7.90;;;11.10;99.90;;;;;;7369288;19;20036;-68
2024/03/15 01:11:08;;;;;;;11.82;8.52;;;11.10;99.90;;;;;;7367488;19;20494;-67
2024/03/15 01:13:35;;;;;;;9.05;7.55;;;11.10;99.90;;;;;;7365409;19;20022;-67
2024/03/15 01:16:02;;;;;;;11.10;7.90;;;11.20;99.90;;;;;;7362852;19;20015;-63
2024/03/15 01:18:28;;;;;;;9.40;8.32;;;11.20;99.90;;;;;;7361151;19;20093;-63
2024/03/15 01:20:55;;;;;;;11.05;8.05;;;11.20;99.90;;;;;;7363882;19;20013;-67
2024/03/15 01:23:22;;;;;;;10.80;7.65;;;11.30;99.90;;;;;;7368886;19;20043;-63
2024/03/15 01:25:51;;;;;;;8.43;7.25;;;11.30;99.90;;;;;;7365337;19;20589;-67
2024/03/15 01:28:18;;;;;;;9.55;8.25;;;11.30;99.90;;;;;;7362074;19;20487;-67
2024/03/15 01:30:45;;;;;;;10.32;7.57;;;11.30;99.90;;;;;;7368083;19;20042;-67
2024/03/15 01:33:11;;;;;;;11.82;8.40;;;11.40;99.90;;;;;;7363124;19;20018;-63
2024/03/15 01:35:37;;;;;;;10.18;8.85;;;11.40;99.90;;;;;;7369113;19;20006;-68
2024/03/15 01:38:03;;;;;;;9.70;7.53;;;11.40;99.90;;;;;;7367006;19;20037;-68
2024/03/15 01:40:31;;;;;;;9.90;7.38;;;11.40;99.90;;;;;;7359437;19;20875;-68
2024/03/15 01:43:00;;;;;;;9.95;8.30;;;11.40;99.90;;;;;;7357049;19;20037;-68
2024/03/15 01:45:26;;;;;;;10.32;7.90;;;11.30;99.90;;;;;;7363805;19;20018;-68
2024/03/15 01:47:53;;;;;;;9.32;8.32;;;11.30;99.90;;;;;;7364733;19;20570;-64
2024/03/15 01:50:22;;;;;;;11.20;8.93;;;11.20;99.90;;;;;;7366089;19;20705;-68
2024/03/15 01:52:50;;;;;;;9.60;8.48;;;11.20;99.90;;;;;;7362611;19;20026;-67
2024/03/15 01:55:16;;;;;;;12.18;8.70;;;11.20;99.90;;;;;;7367514;19;20426;-67
2024/03/15 01:57:43;;;;;;;9.60;8.38;;;11.10;99.90;;;;;;7369022;19;20022;-63
2024/03/15 02:00:10;;;;;;;12.50;8.15;;;11.10;99.90;;;;;;7364255;19;20019;-63
2024/03/15 02:02:40;;;;;;;13.00;8.88;;;11.10;99.90;;;;;;7366002;19;20604;-63
2024/03/15 02:05:06;;;;;;;12.70;8.80;;;11.10;99.90;;;;;;7369333;19;20018;-63
2024/03/15 02:07:32;;;;;;;13.38;8.60;;;11.10;99.90;;;;;;7367753;19;20512;-63
2024/03/15 02:10:08;;;;;;;12.45;9.30;;;11.20;99.90;;;;;;7360639;19;20015;-64
2024/03/15 02:12:37;;;;;;;11.23;8.25;;;11.20;99.90;;;;;;7367700;19;20568;-64
2024/03/15 02:15:07;;;;;;;11.40;8.10;;;11.30;99.90;;;;;;7364627;19;20015;-64
2024/03/15 02:17:36;;;;;;;11.20;9.55;;;11.30;99.90;;;;;;7367719;19;20018;-64
2024/03/15 02:20:11;;;;;;;9.98;8.35;;;11.30;99.90;;;;;;7363015;19;20026;-64
2024/03/15 02:22:39;;;;;;;10.90;8.70;;;11.40;99.90;;;;;;7365625;19;20775;-64
2024/03/15 02:25:07;;;;;;;13.93;8.80;;;11.40;99.90;;;;;;7365331;19;20076;-64
2024/03/15 02:27:33;;;;;;;10.68;8.32;;;11.40;99.90;;;;;;7370502;19;20018;-68
2024/03/15 02:30:01;;;;;;;10.20;8.88;;;11.50;99.90;;;;;;7367807;19;20086;-64
2024/03/15 02:32:29;;;;;;;11.27;8.95;;;11.50;99.90;;;;;;7364799;19;20059;-64
2024/03/15 02:34:56;;;;;;;10.95;8.85;;;11.60;99.90;;;;;;7369073;19;20018;-67
2024/03/15 02:37:22;;;;;;;12.55;9.20;;;11.60;99.90;;;;;;7370515;19;20014;-68
2024/03/15 02:39:48;;;;;;;10.63;8.85;;;11.70;99.90;;;;;;7366615;19;20755;-67
2024/03/15 02:42:15;;;;;;;10.00;8.50;;;11.70;99.90;;;;;;7364793;19;20022;-67
2024/03/15 02:44:41;;;;;;;11.07;9.05;;;11.70;99.90;;;;;;7365862;19;20729;-67
2024/03/15 02:47:07;;;;;;;12.05;8.93;;;11.70;99.90;;;;;;7366283;19;20475;-67
2024/03/15 02:49:33;;;;;;;10.70;8.68;;;11.80;99.90;;;;;;7365864;19;20975;-64
2024/03/15 02:52:00;;;;;;;10.98;8.60;;;11.80;99.90;;;;;;7361075;19;20018;-63
2024/03/15 02:54:28;;;;;;;11.82;9.30;;;11.80;99.90;;;;;;7366980;19;20753;-67
2024/03/15 02:56:55;;;;;;;13.25;9.60;;;11.80;99.90;;;;;;7370683;19;20632;-67
2024/03/15 02:59:23;;;;;;;11.82;9.02;;;11.80;99.90;;;;;;7367004;19;20553;-67
2024/03/15 03:01:51;;;;;;;10.27;8.90;;;11.80;99.90;;;;;;7365221;19;20037;-68
2024/03/15 03:04:20;;;;;;;13.02;9.30;;;11.90;99.90;;;;;;7367460;19;20600;-67
2024/03/15 03:06:47;;;;;;;11.77;9.55;;;11.80;99.90;;;;;;7367503;19;20018;-67
2024/03/15 03:09:17;;;;;;;10.25;8.77;;;11.80;99.90;;;;;;7366473;19;20023;-66
2024/03/15 03:11:43;;;;;;;10.52;9.20;;;11.80;99.90;;;;;;7367185;19;20046;-67
2024/03/15 03:14:09;;;;;;;14.70;9.70;;;11.80;99.90;;;;;;7370142;19;20019;-67
2024/03/15 03:16:35;;;;;;;10.73;9.60;;;11.80;99.90;;;;;;7366834;19;20106;-63
2024/03/15 03:19:05;;;;;;;12.27;9.43;;;11.80;99.90;;;;;;7366400;19;20572;-63
2024/03/15 03:21:31;;;;;;;15.15;9.63;;;11.80;99.90;;;;;;7362060;19;20026;-63
2024/03/15 03:24:00;;;;;;;13.93;9.82;;;11.80;99.90;;;;;;7366995;19;20491;-67
2024/03/15 03:26:27;;;;;;;11.07;9.75;;;11.80;99.90;;;;;;7362593;19;20021;-64
2024/03/15 03:28:55;;;;;;;11.35;10.00;;;11.80;99.90;;;;;;7368143;19;20033;-67
2024/03/15 03:31:21;;;;;;;10.90;9.65;;;11.80;99.90;;;;;;7365776;19;20756;-67
2024/03/15 03:33:47;;;;;;;11.80;9.45;;;11.90;99.90;;;;;;7364736;19;20014;-64
2024/03/15 03:36:13;;;;;;;14.57;10.15;;;11.80;99.90;;;;;;7365270;19;20115;-67
2024/03/15 03:38:40;;;;;;;13.68;10.43;;;11.80;99.90;;;;;;7365626;19;20022;-63
2024/03/15 03:41:06;;;;;;;13.52;9.73;;;11.80;99.90;;;;;;7360736;19;20082;-64
2024/03/15 03:43:32;;;;;;;16.98;10.52;;;11.80;99.90;;;;;;7357410;19;21604;-68
2024/03/15 03:45:59;;;;;;;15.68;10.65;;;11.70;99.90;;;;;;7364691;19;20412;-68
2024/03/15 03:48:25;;;;;;;14.85;10.88;;;11.70;99.90;;;;;;7359836;19;20364;-68
2024/03/15 03:50:51;;;;;;;13.07;10.43;;;11.70;99.90;;;;;;7368741;19;20015;-63
2024/03/15 03:53:17;;;;;;;14.25;10.38;;;11.70;99.90;;;;;;7372338;19;20015;-64
2024/03/15 03:55:43;;;;;;;12.77;10.23;;;11.60;99.90;;;;;;7376996;19;20041;-67
2024/03/15 03:58:12;;;;;;;12.25;10.95;;;11.60;99.90;;;;;;7372954;19;20018;-68
2024/03/15 04:00:39;;;;;;;12.57;10.55;;;11.60;99.90;;;;;;7371990;19;20022;-63
2024/03/15 04:03:05;;;;;;;13.73;10.65;;;11.60;99.90;;;;;;7373876;19;20094;-63
2024/03/15 04:05:31;;;;;;;13.77;10.68;;;11.60;99.90;;;;;;7372902;19;20018;-68
2024/03/15 04:07:57;;;;;;;14.13;10.93;;;11.60;99.90;;;;;;7371335;19;20014;-68
2024/03/15 04:10:24;;;;;;;11.85;10.63;;;11.60;99.90;;;;;;7370269;19;20018;-64
2024/03/15 04:12:50;;;;;;;13.35;10.98;;;11.60;99.90;;;;;;7372118;19;20054;-68
2024/03/15 04:15:17;;;;;;;13.70;11.43;;;11.60;99.90;;;;;;7373524;19;20831;-64
2024/03/15 04:17:43;;;;;;;14.70;12.85;;;11.60;99.90;;;;;;7372417;19;20014;-67
2024/03/15 04:20:16;;;;;;;16.30;11.80;;;11.60;99.90;;;;;;7365895;19;20018;-63
2024/03/15 04:22:43;;;;;;;15.10;12.30;;;11.50;99.90;;;;;;7364340;19;20018;-63
2024/03/15 04:25:10;;;;;;;13.77;12.18;;;11.50;99.90;;;;;;7363044;19;20473;-68
2024/03/15 04:27:36;;;;;;;17.27;13.23;;;11.50;99.90;;;;;;7362609;19;20509;-64
2024/03/15 04:30:13;;;;;;;15.18;13.00;;;11.40;99.90;;;;;;7363656;19;20022;-68
2024/03/15 04:32:46;;;;;;;17.17;13.45;;;11.40;99.90;;;;;;7369075;19;20031;-63
2024/03/15 04:35:17;;;;;;;17.33;13.55;;;11.30;99.90;;;;;;7367016;19;20108;-64
2024/03/15 04:37:44;;;;;;;17.40;13.98;;;11.30;99.90;;;;;;7373016;19;20094;-71
2024/03/15 04:40:13;;;;;;;20.95;14.82;;;11.30;99.90;;;;;;7370899;19;20371;-65
2024/03/15 04:42:39;;;;;;;21.50;15.70;;;11.30;99.90;;;;;;7365619;19;20741;-65
2024/03/15 04:45:08;;;;;;;19.83;14.75;;;11.20;99.90;;;;;;7368588;19;20025;-69
2024/03/15 04:47:39;;;;;;;21.95;15.90;;;11.20;99.90;;;;;;7368668;19;20017;-70
2024/03/15 04:50:09;;;;;;;21.52;16.98;;;11.10;99.90;;;;;;7369737;19;20019;-65
2024/03/15 04:52:36;;;;;;;19.08;16.48;;;11.10;99.90;;;;;;7372477;19;20021;-68
2024/03/15 04:55:03;;;;;;;25.48;18.55;;;11.10;99.90;;;;;;7367138;19;21507;-70
2024/03/15 04:57:30;;;;;;;24.20;17.52;;;11.10;99.90;;;;;;7370177;19;20025;-69
2024/03/15 04:59:56;;;;;;;22.05;17.92;;;11.10;99.90;;;;;;7370563;19;20367;-69
2024/03/15 05:02:22;;;;;;;23.85;17.60;;;11.10;99.90;;;;;;7370255;19;20042;-69
2024/03/15 05:04:49;;;;;;;25.42;18.25;;;11.00;99.90;;;;;;7371769;19;20486;-66
2024/03/15 05:07:15;;;;;;;23.95;18.15;;;11.00;99.90;;;;;;7370637;19;20014;-66
2024/03/15 05:09:41;;;;;;;26.33;20.27;;;11.00;99.90;;;;;;7371908;19;20025;-69
2024/03/15 05:12:12;;;;;;;24.27;19.55;;;11.10;99.90;;;;;;7373012;19;20010;-69
2024/03/15 05:14:38;;;;;;;27.42;21.27;;;11.10;99.90;;;;;;7375265;19;20113;-65
2024/03/15 05:17:04;;;;;;;27.15;20.08;;;11.10;99.90;;;;;;7370197;19;20589;-70
2024/03/15 05:19:31;;;;;;;24.98;19.70;;;11.10;99.90;;;;;;7379048;19;20029;-69
2024/03/15 05:21:58;;;;;;;26.05;21.30;;;11.10;99.90;;;;;;7375562;19;20867;-68
2024/03/15 05:24:26;;;;;;;28.05;21.33;;;11.10;99.90;;;;;;7379532;19;20037;-68
2024/03/15 05:26:53;;;;;;;29.45;22.27;;;11.10;99.90;;;;;;7379353;19;20014;-68
2024/03/15 05:29:20;;;;;;;32.40;22.08;;;11.10;99.90;;;;;;7370981;19;20028;-66
2024/03/15 05:31:46;;;;;;;25.90;22.25;;;11.20;99.90;;;;;;7370795;19;20022;-66
2024/03/15 05:34:14;;;;;;;27.98;23.15;;;11.20;99.90;;;;;;7364269;19;20018;-66
2024/03/15 05:36:41;;;;;;;31.70;23.08;;;11.20;99.90;;;;;;7371702;19;20106;-65
2024/03/15 05:39:10;;;;;;;26.67;23.25;;;11.30;99.90;;;;;;7366563;19;20742;-66
2024/03/15 05:41:38;;;;;;;30.20;22.83;;;11.30;99.90;;;;;;7367441;19;20035;-66
2024/03/15 05:44:05;;;;;;;26.48;23.63;;;11.30;99.90;;;;;;7370047;19;20470;-66
2024/03/15 05:46:32;;;;;;;26.58;22.42;;;11.30;99.90;;;;;;7366400;19;20057;-64
2024/03/15 05:49:00;;;;;;;26.73;23.40;;;11.30;99.90;;;;;;7364919;19;20022;-66
2024/03/15 05:51:27;;;;;;;33.22;23.55;;;11.40;99.90;;;;;;7366274;19;20041;-65
2024/03/15 05:53:54;;;;;;;28.40;23.52;;;11.40;99.90;;;;;;7365975;19;20023;-64
2024/03/15 05:56:23;;;;;;;26.05;22.90;;;11.40;99.90;;;;;;7368461;19;20480;-65
2024/03/15 05:58:50;;;;;;;27.13;22.63;;;11.50;99.90;;;;;;7367054;19;20018;-65
2024/03/15 06:01:17;;;;;;;27.10;21.10;;;11.40;99.90;;;;;;7365308;19;20018;-64
2024/03/15 06:03:43;;;;;;;29.13;23.00;;;11.50;99.90;;;;;;7366456;19;20661;-65
2024/03/15 06:06:09;;;;;;;26.60;22.50;;;11.50;99.90;;;;;;7367751;19;20467;-66
2024/03/15 06:08:35;;;;;;;25.92;22.75;;;11.50;99.90;;;;;;7364848;19;20024;-66
2024/03/15 06:11:02;;;;;;;24.30;21.45;;;11.50;99.90;;;;;;7369629;19;20655;-68
2024/03/15 06:13:28;;;;;;;23.30;20.73;;;11.50;99.90;;;;;;7368108;19;20006;-64
2024/03/15 06:15:54;;;;;;;27.67;21.38;;;11.50;99.90;;;;;;7370649;19;20037;-65
2024/03/15 06:18:20;;;;;;;25.67;21.25;;;11.50;99.90;;;;;;7369361;19;20041;-64
2024/03/15 06:20:46;;;;;;;23.77;20.65;;;11.50;99.90;;;;;;7365881;19;20037;-65
2024/03/15 06:23:14;;;;;;;25.95;20.73;;;11.50;99.90;;;;;;7367502;19;20015;-65
2024/03/15 06:25:43;;;;;;;25.27;21.67;;;11.50;99.90;;;;;;7366856;19;20018;-65
2024/03/15 06:28:11;;;;;;;26.05;20.70;;;11.50;99.90;;;;;;7367476;19;20014;-65
2024/03/15 06:30:44;;;;;;;27.70;22.25;;;11.60;99.90;;;;;;7366931;19;20033;-65
2024/03/15 06:33:11;;;;;;;29.73;20.58;;;11.60;99.90;;;;;;7367114;19;20030;-65
2024/03/15 06:35:38;;;;;;;25.55;21.00;;;11.60;99.90;;;;;;7365135;19;20010;-65
2024/03/15 06:38:17;;;;;;;26.90;21.73;;;11.60;99.90;;;;;;7364737;19;20019;-64
2024/03/15 06:40:45;;;;;;;27.10;21.08;;;11.60;99.90;;;;;;7358835;19;20606;-64
2024/03/15 06:43:25;;;;;;;24.92;20.13;;;11.60;99.90;;;;;;7369122;19;20018;-69
2024/03/15 06:48:20;;;;;;;24.65;20.33;;;11.60;99.90;;;;;;7364313;19;20375;-69
2024/03/15 06:51:00;;;;;;;22.13;19.73;;;11.60;99.90;;;;;;7367433;19;20029;-72
2024/03/15 06:53:28;;;;;;;25.30;20.05;;;11.60;99.90;;;;;;7366372;19;21097;-71
2024/03/15 06:55:58;;;;;;;25.45;20.27;;;11.70;99.90;;;;;;7365308;19;20023;-70
2024/03/15 06:58:24;;;;;;;24.63;19.83;;;11.70;99.90;;;;;;7363338;19;20682;-70
2024/03/15 07:00:50;;;;;;;24.27;20.33;;;11.70;99.90;;;;;;7363739;19;20020;-65
2024/03/15 07:03:18;;;;;;;24.70;19.20;;;11.70;99.90;;;;;;7359304;19;20022;-64
2024/03/15 07:05:44;;;;;;;43.78;36.78;;;11.80;99.90;;;;;;7361598;19;20102;-63
2024/03/15 07:08:14;;;;;;;22.27;18.63;;;11.80;99.90;;;;;;7367746;19;20011;-66
2024/03/15 07:10:41;;;;;;;23.42;18.92;;;11.80;99.90;;;;;;7374944;19;20021;-68
2024/03/15 07:13:09;;;;;;;21.02;18.73;;;11.80;99.90;;;;;;7377866;19;20025;-67
2024/03/15 07:15:36;;;;;;;22.35;17.95;;;11.80;99.90;;;;;;7376358;19;21289;-67
2024/03/15 07:18:04;;;;;;;21.02;17.50;;;11.90;99.90;;;;;;7372020;19;20037;-65
2024/03/15 07:20:36;;;;;;;21.67;18.15;;;11.90;99.90;;;;;;7369006;19;20019;-66
2024/03/15 07:23:06;;;;;;;23.00;18.77;;;11.90;99.90;;;;;;7370131;19;20065;-68
2024/03/15 07:25:34;;;;;;;19.98;17.70;;;12.00;99.90;;;;;;7373287;19;20532;-66
2024/03/15 07:28:01;;;;;;;25.40;18.30;;;12.00;99.90;;;;;;7386892;19;20040;-67
2024/03/15 07:30:28;;;;;;;18.23;16.30;;;12.00;99.90;;;;;;7375117;19;20022;-64
2024/03/15 07:32:55;;;;;;;18.20;16.17;;;12.10;99.90;;;;;;7369918;19;20023;-63
2024/03/15 07:35:21;;;;;;;18.60;16.42;;;12.10;99.90;;;;;;7359993;19;20695;-64
2024/03/15 07:37:47;;;;;;;23.30;16.52;;;12.10;99.90;;;;;;7369106;19;20590;-64
2024/03/15 07:40:14;;;;;;;19.40;17.08;;;12.10;99.90;;;;;;7366110;19;20026;-64
2024/03/15 07:42:41;;;;;;;17.67;15.77;;;12.10;99.90;;;;;;7369585;19;20804;-64
2024/03/15 07:45:09;;;;;;;17.63;15.93;;;12.20;99.90;;;;;;7364904;19;20496;-63
2024/03/15 07:47:37;;;;;;;19.67;16.30;;;12.20;99.90;;;;;;7371451;19;20055;-67
2024/03/15 07:50:06;;;;;;;15.63;13.98;;;12.20;99.90;;;;;;7373676;19;20374;-66
2024/03/15 07:52:32;;;;;;;18.95;14.77;;;12.30;99.90;;;;;;7369395;19;20019;-67
2024/03/15 07:54:58;;;;;;;16.88;14.98;;;12.30;99.90;;;;;;7373729;19;20515;-63
2024/03/15 07:57:24;;;;;;;19.33;16.35;;;12.40;99.90;;;;;;7367261;19;20033;-66
2024/03/15 07:59:53;;;;;;;17.67;15.88;;;12.40;99.90;;;;;;7385792;19;20377;-63
2024/03/15 08:02:19;;;;;;;16.23;14.52;;;12.40;99.90;;;;;;7373269;19;20025;-64
2024/03/15 08:04:47;;;;;;;17.45;15.35;;;12.40;99.90;;;;;;7382188;19;20006;-64
2024/03/15 08:07:14;;;;;;;21.10;15.32;;;12.40;99.90;;;;;;7368951;19;20018;-63
2024/03/15 08:09:40;;;;;;;19.20;15.90;;;12.40;99.90;;;;;;7389913;19;20010;-65
2024/03/15 08:12:07;;;;;;;19.50;16.23;;;12.40;99.90;;;;;;7377270;19;20022;-61
2024/03/15 08:14:36;;;;;;;17.73;15.80;;;12.40;99.90;;;;;;7376874;19;20047;-64
2024/03/15 08:17:04;;;;;;;19.45;16.00;;;12.50;99.90;;;;;;7374754;19;20585;-62
2024/03/15 08:19:33;;;;;;;19.08;15.45;;;12.50;99.90;;;;;;7369392;19;20401;-62
2024/03/15 08:22:01;;;;;;;17.35;15.35;;;12.60;99.90;;;;;;7368448;19;20015;-61
2024/03/15 08:24:28;;;;;;;16.25;14.55;;;12.70;99.90;;;;;;7363975;19;20022;-61
2024/03/15 08:26:54;;;;;;;16.83;13.68;;;12.90;99.90;;;;;;7379298;19;20010;-65
2024/03/15 08:29:21;;;;;;;15.50;13.27;;;13.00;99.90;;;;;;7380172;19;20017;-65
2024/03/15 08:31:48;;;;;;;13.68;12.25;;;13.00;99.90;;;;;;7378170;19;20021;-68
2024/03/15 08:34:15;;;;;;;14.63;12.50;;;13.00;99.90;;;;;;7369206;19;20554;-62
2024/03/15 08:36:41;;;;;;;15.43;12.27;;;13.00;99.90;;;;;;7369709;19;20078;-61
2024/03/15 08:39:10;;;;;;;14.90;11.50;;;12.90;99.90;;;;;;7371928;19;20379;-65
2024/03/15 08:41:37;;;;;;;15.75;11.75;;;12.90;99.90;;;;;;7368966;19;20018;-64
2024/03/15 08:44:07;;;;;;;14.00;11.63;;;13.00;99.90;;;;;;7371477;19;20018;-65
2024/03/15 08:46:35;;;;;;;12.77;10.77;;;13.00;99.90;;;;;;7370622;19;20026;-65
2024/03/15 08:49:02;;;;;;;13.32;10.77;;;13.00;99.90;;;;;;7374974;19;20019;-65
2024/03/15 08:51:29;;;;;;;17.55;11.38;;;13.00;99.90;;;;;;7365884;19;20070;-60
2024/03/15 08:53:55;;;;;;;13.32;10.38;;;13.00;99.90;;;;;;7370795;19;20014;-61
2024/03/15 08:56:24;;;;;;;13.18;10.07;;;13.00;99.90;;;;;;7365560;19;20378;-61
2024/03/15 08:58:51;;;;;;;16.98;11.68;;;13.00;99.90;;;;;;7374364;19;20022;-66
2024/03/15 09:01:20;;;;;;;12.60;10.32;;;12.90;99.90;;;;;;7364695;19;20029;-65
2024/03/15 09:03:50;;;;;;;16.60;11.30;;;12.90;99.90;;;;;;7372543;19;20026;-65
2024/03/15 09:06:16;;;;;;;13.52;10.55;;;12.80;99.90;;;;;;7365885;19;20574;-62
2024/03/15 09:08:43;;;;;;;13.95;11.18;;;12.80;99.90;;;;;;7373174;19;20045;-62
2024/03/15 09:11:11;;;;;;;15.93;11.93;;;12.70;99.90;;;;;;7366469;19;20474;-63
2024/03/15 09:13:37;;;;;;;16.50;12.95;;;12.80;99.90;;;;;;7374993;19;20094;-62
2024/03/15 09:16:06;;;;;;;12.43;10.85;;;12.90;99.90;;;;;;7370512;19;20025;-63
2024/03/15 09:18:33;;;;;;;16.02;11.10;;;13.00;99.90;;;;;;7377722;19;20027;-64
2024/03/15 09:20:59;;;;;;;12.98;11.52;;;13.10;99.90;;;;;;7363418;19;20034;-64
2024/03/15 09:23:25;;;;;;;13.60;11.75;;;13.10;99.90;;;;;;7370761;19;20497;-63
2024/03/15 09:25:51;;;;;;;15.75;11.32;;;13.20;99.90;;;;;;7371030;19;20040;-64
2024/03/15 09:28:18;;;;;;;14.50;11.25;;;13.20;99.90;;;;;;7367130;19;20022;-64
2024/03/15 09:30:54;;;;;;;13.65;10.77;;;13.30;99.90;;;;;;7373778;19;20411;-64
2024/03/15 09:33:27;;;;;;;33.13;25.38;;;13.30;99.90;;;;;;7368123;19;20078;-62
2024/03/15 09:35:53;;;;;;;12.98;9.38;;;13.40;99.90;;;;;;7376511;19;20601;-62
2024/03/15 09:38:22;;;;;;;17.55;10.50;;;13.40;99.90;;;;;;7370288;19;20010;-63
2024/03/15 09:40:55;;;;;;;15.48;10.13;;;13.30;99.90;;;;;;7371222;19;20014;-63
2024/03/15 09:43:21;;;;;;;16.08;9.15;;;13.30;99.90;;;;;;7370378;19;20014;-65
2024/03/15 09:45:47;;;;;;;13.20;8.40;;;13.20;99.90;;;;;;7378646;19;20346;-63
2024/03/15 09:48:16;;;;;;;12.27;8.82;;;13.20;99.90;;;;;;7366202;19;20021;-65
2024/03/15 09:50:46;;;;;;;10.52;8.52;;;13.20;99.90;;;;;;7376402;19;20507;-65
2024/03/15 09:53:12;;;;;;;11.90;7.88;;;13.20;99.90;;;;;;7376688;19;20909;-67
2024/03/15 09:55:40;;;;;;;10.75;6.90;;;13.30;99.90;;;;;;7374799;19;20071;-63
2024/03/15 09:58:10;;;;;;;10.73;6.63;;;13.50;99.90;;;;;;7366808;19;20605;-64
2024/03/15 10:00:38;;;;;;;9.25;6.38;;;13.60;99.90;;;;;;7373928;19;20018;-63
2024/03/15 10:03:05;;;;;;;8.93;5.72;;;13.60;99.90;;;;;;7363845;19;20022;-63
2024/03/15 10:05:32;;;;;;;12.80;5.57;;;13.60;99.90;;;;;;7373779;19;20506;-63
2024/03/15 10:07:58;;;;;;;14.05;5.50;;;13.60;99.90;;;;;;7365147;19;20506;-65
2024/03/15 10:10:26;;;;;;;8.48;5.20;;;13.70;99.90;;;;;;7368509;19;20033;-62
2024/03/15 10:12:52;;;;;;;7.78;4.90;;;13.80;99.90;;;;;;7376159;19;20026;-63
2024/03/15 10:15:23;;;;;;;10.88;4.85;;;13.70;99.90;;;;;;7376266;19;20085;-63
2024/03/15 10:17:54;;;;;;;10.38;4.50;;;13.70;99.90;;;;;;7374132;19;20011;-62
2024/03/15 10:20:25;;;;;;;7.78;3.72;;;13.70;99.90;;;;;;7379704;19;20011;-66
2024/03/15 10:22:56;;;;;;;7.43;4.45;;;13.60;99.90;;;;;;7374581;19;20383;-64
2024/03/15 10:25:24;;;;;;;7.45;4.25;;;13.70;99.90;;;;;;7369204;19;20024;-65
2024/03/15 10:27:54;;;;;;;6.43;3.50;;;13.70;99.90;;;;;;7380736;19;20022;-62
2024/03/15 10:30:24;;;;;;;9.02;3.58;;;13.70;99.90;;;;;;7382586;19;20029;-62
2024/03/15 10:32:58;;;;;;;7.07;3.47;;;13.70;99.90;;;;;;7377799;19;20041;-62
2024/03/15 10:35:28;;;;;;;8.40;3.92;;;13.70;99.90;;;;;;7380111;19;20482;-61
2024/03/15 10:37:55;;;;;;;8.45;3.92;;;13.80;99.90;;;;;;7381047;19;20018;-61
2024/03/15 10:40:23;;;;;;;9.88;4.82;;;13.80;99.90;;;;;;7370855;19;20031;-60
2024/03/15 10:42:50;;;;;;;9.63;3.92;;;13.90;99.90;;;;;;7362496;19;20772;-59
2024/03/15 10:45:23;;;;;;;13.30;4.68;;;13.90;99.90;;;;;;7369859;19;20018;-59
2024/03/15 10:47:49;;;;;;;9.77;4.80;;;14.00;99.90;;;;;;7370902;19;20014;-64
2024/03/15 10:50:20;;;;;;;9.07;4.50;;;14.00;99.90;;;;;;7371546;19;20089;-60
2024/03/15 10:52:52;;;;;;;9.20;4.10;;;14.00;99.90;;;;;;7370386;19;20026;-60
2024/03/15 10:55:19;;;;;;;9.57;4.07;;;14.00;99.90;;;;;;7372883;19;20026;-60
2024/03/15 10:57:47;;;;;;;13.18;4.32;;;13.90;99.90;;;;;;7376176;19;20593;-60
2024/03/15 11:00:19;;;;;;;11.02;4.40;;;13.80;99.90;;;;;;7379805;19;20726;-62
2024/03/15 11:02:46;;;;;;;11.63;4.25;;;13.80;99.90;;;;;;7385826;19;20030;-61
2024/03/15 11:05:16;;;;;;;12.80;5.13;;;13.90;99.90;;;;;;7382913;19;20462;-59
2024/03/15 11:07:42;;;;;;;10.05;4.03;;;14.00;99.90;;;;;;7386506;19;20042;-59
2024/03/15 11:10:11;;;;;;;11.70;4.55;;;14.00;99.90;;;;;;7380345;19;20014;-59
2024/03/15 11:12:37;;;;;;;12.52;4.53;;;14.10;99.90;;;;;;7380915;19;20018;-60
2024/03/15 11:15:21;;;;;;;13.50;4.68;;;14.50;99.90;;;;;;7377203;19;20014;-59
2024/03/15 11:18:06;;;;;;;7.30;3.47;;;14.90;99.90;;;;;;7382528;19;20025;-60
2024/03/15 11:20:52;;;;;;;8.65;3.22;;;15.70;99.90;;;;;;7376888;19;20029;-60
2024/03/15 11:23:19;;;;;;;12.50;3.85;;;16.60;99.90;;;;;;7375659;19;20390;-60
2024/03/15 11:26:00;;;;;;;7.18;3.22;;;16.90;99.90;;;;;;7377883;19;20448;-60
2024/03/15 11:28:29;;;;;;;9.55;2.97;;;17.40;99.90;;;;;;7371154;19;20108;-60
2024/03/15 11:30:55;;;;;;;8.98;3.35;;;17.70;99.90;;;;;;7369442;19;20018;-60
2024/03/15 11:33:22;;;;;;;8.40;3.40;;;17.60;99.90;;;;;;7368356;19;20466;-60
2024/03/15 11:35:51;;;;;;;9.20;3.47;;;17.20;99.90;;;;;;7372570;19;20077;-61
2024/03/15 11:38:19;;;;;;;6.00;3.13;;;16.40;99.90;;;;;;7372748;19;20037;-59
2024/03/15 11:40:46;;;;;;;7.40;3.67;;;15.80;99.90;;;;;;7372065;19;20765;-60
2024/03/15 11:43:14;;;;;;;9.00;4.00;;;15.50;99.90;;;;;;7372863;19;20082;-59
2024/03/15 11:45:41;;;;;;;9.93;3.92;;;15.30;99.90;;;;;;7378050;19;20399;-61
2024/03/15 11:48:18;;;;;;;9.57;4.05;;;15.10;99.90;;;;;;7374273;19;20019;-60
2024/03/15 11:50:46;;;;;;;7.78;3.83;;;14.90;99.90;;;;;;7376729;19;20126;-60
2024/03/15 11:53:14;;;;;;;10.75;3.63;;;14.80;99.90;;;;;;7375766;19;20019;-62
2024/03/15 11:55:41;;;;;;;10.38;4.05;;;14.80;99.90;;;;;;7387675;19;20023;-65
2024/03/15 11:58:16;;;;;;;12.55;4.65;;;14.90;99.90;;;;;;7384561;19;20554;-64
2024/03/15 12:00:47;;;;;;;9.43;4.88;;;14.90;99.90;;;;;;7377295;19;20114;-63
2024/03/15 12:03:16;;;;;;;7.75;4.30;;;14.80;99.90;;;;;;7379530;19;20018;-63
2024/03/15 12:05:43;;;;;;;7.45;4.47;;;14.80;99.90;;;;;;7376025;19;20022;-63
2024/03/15 12:08:21;;;;;;;10.15;4.65;;;14.70;99.90;;;;;;7379004;19;20487;-65
2024/03/15 12:10:49;;;;;;;11.25;5.35;;;14.60;99.90;;;;;;7377214;19;20050;-63
2024/03/15 12:13:19;;;;;;;12.82;4.45;;;14.60;99.90;;;;;;7376098;19;20816;-64
2024/03/15 12:15:46;;;;;;;10.93;4.68;;;14.50;99.90;;;;;;7377494;19;20015;-64
2024/03/15 12:18:14;;;;;;;10.43;4.80;;;14.50;99.90;;;;;;7378611;19;20026;-63
2024/03/15 12:20:44;;;;;;;10.65;5.35;;;14.40;99.90;;;;;;7378489;19;20105;-64
2024/03/15 12:23:15;;;;;;;11.38;5.75;;;14.10;99.90;;;;;;7378237;19;20022;-63
2024/03/15 12:25:42;;;;;;;11.20;6.82;;;13.70;99.90;;;;;;7380356;19;20083;-64
2024/03/15 12:28:14;;;;;;;12.77;6.78;;;13.50;99.90;;;;;;7378937;19;20019;-64
2024/03/15 12:30:45;;;;;;;12.95;7.45;;;13.60;99.90;;;;;;7379483;19;20023;-64
2024/03/15 12:33:12;;;;;;;13.65;6.97;;;14.50;99.90;;;;;;7380341;19;20017;-64
2024/03/15 12:35:40;;;;;;;10.73;7.18;;;14.80;99.90;;;;;;7380775;19;20762;-65
2024/03/15 12:38:12;;;;;;;8.77;5.82;;;14.60;99.90;;;;;;7380514;19;20085;-65